sensor_id;sensor_type;location;lat;lon;timestamp;P1;durP1;ratioP1;P2;durP2;ratioP2
76731;SDS011;65656;51.130;13.658;2024-03-02T00:02:32;48.05;;;38.42;;
76731;SDS011;65656;51.130;13.658;2024-03-02T00:06:34;55.30;;;40.30;;
76731;SDS011;65656;51.130;13.658;2024-03-02T00:10:37;54.90;;;43.40;;
76731;SDS011;65656;51.130;13.658;2024-03-02T00:14:42;72.80;;;65.32;;
76731;SDS011;65656;51.130;13.658;2024-03-02T00:18:44;56.47;;;41.92;;
76731;SDS011;65656;51.130;13.658;2024-03-02T00:22:46;60.17;;;44.40;;
76731;SDS011;65656;51.130;13.658;2024-03-02T00:26:51;62.45;;;44.45;;
76731;SDS011;65656;51.130;13.658;2024-03-02T00:30:59;61.15;;;40.20;;
76731;SDS011;65656;51.130;13.658;2024-03-02T00:35:04;56.50;;;44.25;;
76731;SDS011;65656;51.130;13.658;2024-03-02T00:39:06;59.05;;;40.63;;
76731;SDS011;65656;51.130;13.658;2024-03-02T00:43:10;57.25;;;37.88;;
76731;SDS011;65656;51.130;13.658;2024-03-02T00:47:38;52.28;;;36.85;;
76731;SDS011;65656;51.130;13.658;2024-03-02T00:51:41;49.42;;;39.28;;
76731;SDS011;65656;51.130;13.658;2024-03-02T00:55:43;49.30;;;36.75;;
76731;SDS011;65656;51.130;13.658;2024-03-02T00:59:46;50.20;;;37.38;;
76731;SDS011;65656;51.130;13.658;2024-03-02T01:03:50;49.50;;;34.92;;
76731;SDS011;65656;51.130;13.658;2024-03-02T01:07:52;50.72;;;38.00;;
76731;SDS011;65656;51.130;13.658;2024-03-02T01:11:54;46.90;;;37.42;;
76731;SDS011;65656;51.130;13.658;2024-03-02T01:15:56;51.78;;;34.72;;
76731;SDS011;65656;51.130;13.658;2024-03-02T01:20:00;51.40;;;36.75;;
76731;SDS011;65656;51.130;13.658;2024-03-02T01:24:02;53.53;;;41.42;;
76731;SDS011;65656;51.130;13.658;2024-03-02T01:28:05;50.38;;;36.17;;
76731;SDS011;65656;51.130;13.658;2024-03-02T01:32:07;47.92;;;41.03;;
76731;SDS011;65656;51.130;13.658;2024-03-02T01:36:10;55.33;;;41.80;;
76731;SDS011;65656;51.130;13.658;2024-03-02T01:40:12;61.00;;;54.80;;
76731;SDS011;65656;51.130;13.658;2024-03-02T01:44:14;64.20;;;57.67;;
76731;SDS011;65656;51.130;13.658;2024-03-02T01:48:17;56.90;;;36.08;;
76731;SDS011;65656;51.130;13.658;2024-03-02T01:52:20;53.33;;;39.33;;
76731;SDS011;65656;51.130;13.658;2024-03-02T01:56:22;55.20;;;40.97;;
76731;SDS011;65656;51.130;13.658;2024-03-02T02:00:24;53.25;;;40.35;;
76731;SDS011;65656;51.130;13.658;2024-03-02T02:04:27;50.03;;;36.22;;
76731;SDS011;65656;51.130;13.658;2024-03-02T02:08:31;50.10;;;36.20;;
76731;SDS011;65656;51.130;13.658;2024-03-02T02:12:33;53.13;;;36.40;;
76731;SDS011;65656;51.130;13.658;2024-03-02T02:16:37;48.88;;;39.20;;
76731;SDS011;65656;51.130;13.658;2024-03-02T02:20:39;68.43;;;61.35;;
76731;SDS011;65656;51.130;13.658;2024-03-02T02:24:42;49.72;;;37.53;;
76731;SDS011;65656;51.130;13.658;2024-03-02T02:28:45;56.00;;;37.78;;
76731;SDS011;65656;51.130;13.658;2024-03-02T02:32:47;56.45;;;40.88;;
76731;SDS011;65656;51.130;13.658;2024-03-02T02:36:49;52.03;;;40.28;;
76731;SDS011;65656;51.130;13.658;2024-03-02T02:40:52;54.15;;;38.83;;
76731;SDS011;65656;51.130;13.658;2024-03-02T02:44:54;48.55;;;36.58;;
76731;SDS011;65656;51.130;13.658;2024-03-02T02:48:56;52.63;;;37.80;;
76731;SDS011;65656;51.130;13.658;2024-03-02T02:52:59;47.35;;;37.83;;
76731;SDS011;65656;51.130;13.658;2024-03-02T02:57:02;47.80;;;36.45;;
76731;SDS011;65656;51.130;13.658;2024-03-02T03:01:04;64.63;;;58.42;;
76731;SDS011;65656;51.130;13.658;2024-03-02T03:05:07;49.80;;;41.97;;
76731;SDS011;65656;51.130;13.658;2024-03-02T03:09:10;43.45;;;32.85;;
76731;SDS011;65656;51.130;13.658;2024-03-02T03:13:13;49.55;;;36.33;;
76731;SDS011;65656;51.130;13.658;2024-03-02T03:17:15;70.20;;;63.50;;
76731;SDS011;65656;51.130;13.658;2024-03-02T03:21:17;42.00;;;32.58;;
76731;SDS011;65656;51.130;13.658;2024-03-02T03:25:19;45.08;;;39.25;;
76731;SDS011;65656;51.130;13.658;2024-03-02T03:29:23;45.03;;;39.80;;
76731;SDS011;65656;51.130;13.658;2024-03-02T03:33:25;49.17;;;34.90;;
76731;SDS011;65656;51.130;13.658;2024-03-02T03:37:27;44.08;;;32.28;;
76731;SDS011;65656;51.130;13.658;2024-03-02T03:41:29;46.97;;;33.75;;
76731;SDS011;65656;51.130;13.658;2024-03-02T03:45:32;51.90;;;39.72;;
76731;SDS011;65656;51.130;13.658;2024-03-02T03:49:35;48.15;;;35.13;;
76731;SDS011;65656;51.130;13.658;2024-03-02T03:53:37;48.35;;;36.60;;
76731;SDS011;65656;51.130;13.658;2024-03-02T03:57:39;53.45;;;47.90;;
76731;SDS011;65656;51.130;13.658;2024-03-02T04:01:42;50.70;;;37.45;;
76731;SDS011;65656;51.130;13.658;2024-03-02T04:05:45;48.45;;;35.92;;
76731;SDS011;65656;51.130;13.658;2024-03-02T04:09:47;44.25;;;35.10;;
76731;SDS011;65656;51.130;13.658;2024-03-02T04:13:49;51.17;;;35.60;;
76731;SDS011;65656;51.130;13.658;2024-03-02T04:17:53;50.63;;;35.47;;
76731;SDS011;65656;51.130;13.658;2024-03-02T04:21:55;48.53;;;39.05;;
76731;SDS011;65656;51.130;13.658;2024-03-02T04:25:58;51.08;;;35.80;;
76731;SDS011;65656;51.130;13.658;2024-03-02T04:30:00;50.10;;;37.70;;
76731;SDS011;65656;51.130;13.658;2024-03-02T04:34:03;57.90;;;39.78;;
76731;SDS011;65656;51.130;13.658;2024-03-02T04:38:05;54.28;;;36.60;;
76731;SDS011;65656;51.130;13.658;2024-03-02T04:42:07;59.17;;;40.85;;
76731;SDS011;65656;51.130;13.658;2024-03-02T04:46:09;56.28;;;41.30;;
76731;SDS011;65656;51.130;13.658;2024-03-02T04:50:13;55.08;;;38.63;;
76731;SDS011;65656;51.130;13.658;2024-03-02T04:54:15;48.22;;;36.67;;
76731;SDS011;65656;51.130;13.658;2024-03-02T04:58:17;52.42;;;35.22;;
76731;SDS011;65656;51.130;13.658;2024-03-02T05:02:19;58.75;;;38.03;;
76731;SDS011;65656;51.130;13.658;2024-03-02T05:06:23;59.47;;;39.42;;
76731;SDS011;65656;51.130;13.658;2024-03-02T05:14:36;50.63;;;35.65;;
76731;SDS011;65656;51.130;13.658;2024-03-02T05:18:38;49.65;;;36.83;;
76731;SDS011;65656;51.130;13.658;2024-03-02T05:22:41;55.42;;;38.97;;
76731;SDS011;65656;51.130;13.658;2024-03-02T05:26:43;52.35;;;37.85;;
76731;SDS011;65656;51.130;13.658;2024-03-02T05:30:45;59.13;;;36.80;;
76731;SDS011;65656;51.130;13.658;2024-03-02T05:34:47;60.20;;;37.30;;
76731;SDS011;65656;51.130;13.658;2024-03-02T05:38:51;51.95;;;33.70;;
76731;SDS011;65656;51.130;13.658;2024-03-02T05:42:53;67.07;;;58.85;;
76731;SDS011;65656;51.130;13.658;2024-03-02T05:46:55;67.95;;;40.60;;
76731;SDS011;65656;51.130;13.658;2024-03-02T05:50:57;68.57;;;57.20;;
76731;SDS011;65656;51.130;13.658;2024-03-02T05:55:00;55.95;;;40.30;;
76731;SDS011;65656;51.130;13.658;2024-03-02T05:59:03;50.08;;;35.58;;
76731;SDS011;65656;51.130;13.658;2024-03-02T06:03:05;54.13;;;35.08;;
76731;SDS011;65656;51.130;13.658;2024-03-02T06:07:07;57.58;;;39.88;;
76731;SDS011;65656;51.130;13.658;2024-03-02T06:11:10;62.25;;;38.30;;
76731;SDS011;65656;51.130;13.658;2024-03-02T06:15:13;61.00;;;42.40;;
76731;SDS011;65656;51.130;13.658;2024-03-02T06:19:15;65.35;;;41.72;;
76731;SDS011;65656;51.130;13.658;2024-03-02T06:23:17;59.17;;;36.63;;
76731;SDS011;65656;51.130;13.658;2024-03-02T06:27:22;63.13;;;43.78;;
76731;SDS011;65656;51.130;13.658;2024-03-02T06:31:23;60.58;;;40.38;;
76731;SDS011;65656;51.130;13.658;2024-03-02T06:35:26;56.67;;;39.30;;
76731;SDS011;65656;51.130;13.658;2024-03-02T06:39:28;57.70;;;36.45;;
76731;SDS011;65656;51.130;13.658;2024-03-02T06:43:31;58.95;;;36.83;;
76731;SDS011;65656;51.130;13.658;2024-03-02T06:47:33;55.67;;;36.55;;
76731;SDS011;65656;51.130;13.658;2024-03-02T06:51:35;59.50;;;38.85;;
76731;SDS011;65656;51.130;13.658;2024-03-02T06:55:37;56.00;;;38.40;;
76731;SDS011;65656;51.130;13.658;2024-03-02T06:59:41;54.67;;;36.85;;
76731;SDS011;65656;51.130;13.658;2024-03-02T07:03:43;52.03;;;39.00;;
76731;SDS011;65656;51.130;13.658;2024-03-02T07:07:45;56.40;;;44.30;;
76731;SDS011;65656;51.130;13.658;2024-03-02T07:11:47;51.40;;;37.53;;
76731;SDS011;65656;51.130;13.658;2024-03-02T07:15:54;55.90;;;39.45;;
76731;SDS011;65656;51.130;13.658;2024-03-02T07:19:56;50.80;;;39.75;;
76731;SDS011;65656;51.130;13.658;2024-03-02T07:23:58;48.95;;;37.25;;
76731;SDS011;65656;51.130;13.658;2024-03-02T07:28:01;47.20;;;32.83;;
76731;SDS011;65656;51.130;13.658;2024-03-02T07:32:05;51.35;;;34.58;;
76731;SDS011;65656;51.130;13.658;2024-03-02T07:36:08;52.85;;;34.40;;
76731;SDS011;65656;51.130;13.658;2024-03-02T07:40:10;52.40;;;34.03;;
76731;SDS011;65656;51.130;13.658;2024-03-02T07:44:13;48.83;;;34.90;;
76731;SDS011;65656;51.130;13.658;2024-03-02T07:48:17;52.30;;;35.72;;
76731;SDS011;65656;51.130;13.658;2024-03-02T07:52:19;47.33;;;34.10;;
76731;SDS011;65656;51.130;13.658;2024-03-02T07:56:21;50.75;;;37.80;;
76731;SDS011;65656;51.130;13.658;2024-03-02T08:00:23;50.13;;;40.05;;
76731;SDS011;65656;51.130;13.658;2024-03-02T08:04:26;49.58;;;37.67;;
76731;SDS011;65656;51.130;13.658;2024-03-02T08:08:28;46.05;;;32.13;;
76731;SDS011;65656;51.130;13.658;2024-03-02T08:12:30;49.00;;;35.47;;
76731;SDS011;65656;51.130;13.658;2024-03-02T08:16:32;47.33;;;37.83;;
76731;SDS011;65656;51.130;13.658;2024-03-02T08:20:36;49.70;;;41.75;;
76731;SDS011;65656;51.130;13.658;2024-03-02T08:24:38;44.40;;;29.38;;
76731;SDS011;65656;51.130;13.658;2024-03-02T08:28:40;47.33;;;32.33;;
76731;SDS011;65656;51.130;13.658;2024-03-02T08:32:42;47.75;;;33.33;;
76731;SDS011;65656;51.130;13.658;2024-03-02T08:36:45;49.63;;;31.25;;
76731;SDS011;65656;51.130;13.658;2024-03-02T08:40:47;53.20;;;34.70;;
76731;SDS011;65656;51.130;13.658;2024-03-02T08:44:51;57.22;;;39.08;;
76731;SDS011;65656;51.130;13.658;2024-03-02T08:48:53;51.78;;;33.70;;
76731;SDS011;65656;51.130;13.658;2024-03-02T08:52:58;55.72;;;36.17;;
76731;SDS011;65656;51.130;13.658;2024-03-02T08:57:00;49.40;;;36.03;;
76731;SDS011;65656;51.130;13.658;2024-03-02T09:01:02;54.92;;;36.53;;
76731;SDS011;65656;51.130;13.658;2024-03-02T09:05:06;54.13;;;38.88;;
76731;SDS011;65656;51.130;13.658;2024-03-02T09:09:10;57.05;;;39.33;;
76731;SDS011;65656;51.130;13.658;2024-03-02T09:13:13;66.75;;;59.65;;
76731;SDS011;65656;51.130;13.658;2024-03-02T09:17:15;50.40;;;32.58;;
76731;SDS011;65656;51.130;13.658;2024-03-02T09:21:17;43.50;;;31.38;;
76731;SDS011;65656;51.130;13.658;2024-03-02T09:25:20;47.25;;;30.65;;
76731;SDS011;65656;51.130;13.658;2024-03-02T09:29:22;42.08;;;28.67;;
76731;SDS011;65656;51.130;13.658;2024-03-02T09:33:24;36.60;;;26.13;;
76731;SDS011;65656;51.130;13.658;2024-03-02T09:37:28;33.13;;;25.80;;
76731;SDS011;65656;51.130;13.658;2024-03-02T09:41:32;44.25;;;39.47;;
76731;SDS011;65656;51.130;13.658;2024-03-02T09:45:34;33.40;;;25.67;;
76731;SDS011;65656;51.130;13.658;2024-03-02T09:49:36;38.22;;;25.38;;
76731;SDS011;65656;51.130;13.658;2024-03-02T09:53:40;55.72;;;50.47;;
76731;SDS011;65656;51.130;13.658;2024-03-02T09:57:44;39.15;;;28.00;;
76731;SDS011;65656;51.130;13.658;2024-03-02T10:06:20;43.58;;;39.45;;
76731;SDS011;65656;51.130;13.658;2024-03-02T10:10:23;33.15;;;22.55;;
76731;SDS011;65656;51.130;13.658;2024-03-02T10:14:26;36.70;;;25.65;;
76731;SDS011;65656;51.130;13.658;2024-03-02T10:18:28;32.88;;;29.63;;
76731;SDS011;65656;51.130;13.658;2024-03-02T10:22:32;26.95;;;18.13;;
76731;SDS011;65656;51.130;13.658;2024-03-02T10:26:34;27.33;;;20.17;;
76731;SDS011;65656;51.130;13.658;2024-03-02T10:30:37;29.77;;;23.15;;
76731;SDS011;65656;51.130;13.658;2024-03-02T10:34:39;30.45;;;23.80;;
76731;SDS011;65656;51.130;13.658;2024-03-02T10:38:41;27.60;;;20.83;;
76731;SDS011;65656;51.130;13.658;2024-03-02T10:42:43;30.85;;;23.38;;
76731;SDS011;65656;51.130;13.658;2024-03-02T10:46:47;41.83;;;37.75;;
76731;SDS011;65656;51.130;13.658;2024-03-02T10:50:51;32.80;;;21.50;;
76731;SDS011;65656;51.130;13.658;2024-03-02T10:54:52;29.35;;;23.15;;
76731;SDS011;65656;51.130;13.658;2024-03-02T10:58:55;34.60;;;21.42;;
76731;SDS011;65656;51.130;13.658;2024-03-02T11:03:04;28.67;;;21.35;;
76731;SDS011;65656;51.130;13.658;2024-03-02T11:07:08;26.33;;;18.90;;
76731;SDS011;65656;51.130;13.658;2024-03-02T11:11:14;27.67;;;19.10;;
76731;SDS011;65656;51.130;13.658;2024-03-02T11:15:20;31.30;;;27.38;;
76731;SDS011;65656;51.130;13.658;2024-03-02T11:19:27;22.55;;;18.35;;
76731;SDS011;65656;51.130;13.658;2024-03-02T11:23:33;23.13;;;15.75;;
76731;SDS011;65656;51.130;13.658;2024-03-02T11:32:06;22.35;;;19.45;;
76731;SDS011;65656;51.130;13.658;2024-03-02T11:36:16;22.70;;;19.38;;
76731;SDS011;65656;51.130;13.658;2024-03-02T11:40:19;23.15;;;20.05;;
76731;SDS011;65656;51.130;13.658;2024-03-02T11:44:24;21.88;;;19.92;;
76731;SDS011;65656;51.130;13.658;2024-03-02T11:48:26;16.02;;;14.07;;
76731;SDS011;65656;51.130;13.658;2024-03-02T11:52:30;32.17;;;29.80;;
76731;SDS011;65656;51.130;13.658;2024-03-02T11:56:31;20.60;;;14.73;;
76731;SDS011;65656;51.130;13.658;2024-03-02T12:00:34;17.77;;;14.52;;
76731;SDS011;65656;51.130;13.658;2024-03-02T12:04:36;15.32;;;12.05;;
76731;SDS011;65656;51.130;13.658;2024-03-02T12:08:43;19.50;;;16.73;;
76731;SDS011;65656;51.130;13.658;2024-03-02T12:12:46;15.65;;;14.18;;
76731;SDS011;65656;51.130;13.658;2024-03-02T12:16:48;14.18;;;12.30;;
76731;SDS011;65656;51.130;13.658;2024-03-02T12:20:50;14.43;;;12.95;;
76731;SDS011;65656;51.130;13.658;2024-03-02T12:24:53;17.25;;;15.68;;
76731;SDS011;65656;51.130;13.658;2024-03-02T12:28:55;11.93;;;9.25;;
76731;SDS011;65656;51.130;13.658;2024-03-02T12:32:57;22.58;;;20.58;;
76731;SDS011;65656;51.130;13.658;2024-03-02T12:36:59;12.00;;;9.30;;
76731;SDS011;65656;51.130;13.658;2024-03-02T12:41:04;16.10;;;14.32;;
76731;SDS011;65656;51.130;13.658;2024-03-02T12:45:07;14.18;;;10.60;;
76731;SDS011;65656;51.130;13.658;2024-03-02T12:49:10;15.57;;;14.10;;
76731;SDS011;65656;51.130;13.658;2024-03-02T12:53:14;16.52;;;13.20;;
76731;SDS011;65656;51.130;13.658;2024-03-02T12:57:18;37.15;;;34.38;;
76731;SDS011;65656;51.130;13.658;2024-03-02T13:01:20;18.13;;;13.32;;
76731;SDS011;65656;51.130;13.658;2024-03-02T13:05:23;22.52;;;13.80;;
76731;SDS011;65656;51.130;13.658;2024-03-02T13:09:25;20.77;;;16.80;;
76731;SDS011;65656;51.130;13.658;2024-03-02T13:13:31;22.25;;;13.00;;
76731;SDS011;65656;51.130;13.658;2024-03-02T13:17:34;21.98;;;16.27;;
76731;SDS011;65656;51.130;13.658;2024-03-02T13:21:39;29.55;;;27.05;;
76731;SDS011;65656;51.130;13.658;2024-03-02T13:25:41;18.33;;;15.73;;
76731;SDS011;65656;51.130;13.658;2024-03-02T13:29:44;19.00;;;16.77;;
76731;SDS011;65656;51.130;13.658;2024-03-02T13:33:47;18.67;;;14.85;;
76731;SDS011;65656;51.130;13.658;2024-03-02T13:37:50;20.55;;;14.48;;
76731;SDS011;65656;51.130;13.658;2024-03-02T13:41:51;30.00;;;27.70;;
76731;SDS011;65656;51.130;13.658;2024-03-02T13:45:55;20.33;;;18.17;;
76731;SDS011;65656;51.130;13.658;2024-03-02T13:49:57;18.98;;;13.75;;
76731;SDS011;65656;51.130;13.658;2024-03-02T13:54:00;22.13;;;14.77;;
76731;SDS011;65656;51.130;13.658;2024-03-02T13:58:02;19.80;;;16.98;;
76731;SDS011;65656;51.130;13.658;2024-03-02T14:02:06;22.35;;;14.90;;
76731;SDS011;65656;51.130;13.658;2024-03-02T14:06:08;20.80;;;14.70;;
76731;SDS011;65656;51.130;13.658;2024-03-02T14:10:10;19.40;;;16.90;;
76731;SDS011;65656;51.130;13.658;2024-03-02T14:14:12;38.55;;;35.58;;
76731;SDS011;65656;51.130;13.658;2024-03-02T14:18:16;19.90;;;16.67;;
76731;SDS011;65656;51.130;13.658;2024-03-02T14:22:18;17.77;;;13.63;;
76731;SDS011;65656;51.130;13.658;2024-03-02T14:26:20;18.75;;;14.27;;
76731;SDS011;65656;51.130;13.658;2024-03-02T14:30:23;18.20;;;15.73;;
76731;SDS011;65656;51.130;13.658;2024-03-02T14:34:26;19.45;;;14.50;;
76731;SDS011;65656;51.130;13.658;2024-03-02T14:38:28;23.17;;;14.93;;
76731;SDS011;65656;51.130;13.658;2024-03-02T14:42:30;19.92;;;17.05;;
76731;SDS011;65656;51.130;13.658;2024-03-02T14:46:32;22.25;;;17.08;;
76731;SDS011;65656;51.130;13.658;2024-03-02T14:50:36;21.63;;;16.92;;
76731;SDS011;65656;51.130;13.658;2024-03-02T14:54:38;23.08;;;16.45;;
76731;SDS011;65656;51.130;13.658;2024-03-02T14:58:41;23.60;;;18.23;;
76731;SDS011;65656;51.130;13.658;2024-03-02T15:02:46;24.33;;;17.52;;
76731;SDS011;65656;51.130;13.658;2024-03-02T15:06:50;23.88;;;17.27;;
76731;SDS011;65656;51.130;13.658;2024-03-02T15:10:52;24.58;;;16.67;;
76731;SDS011;65656;51.130;13.658;2024-03-02T15:14:54;22.90;;;17.50;;
76731;SDS011;65656;51.130;13.658;2024-03-02T15:18:56;23.65;;;19.63;;
76731;SDS011;65656;51.130;13.658;2024-03-02T15:22:59;23.50;;;20.88;;
76731;SDS011;65656;51.130;13.658;2024-03-02T15:27:01;24.25;;;21.60;;
76731;SDS011;65656;51.130;13.658;2024-03-02T15:31:03;23.20;;;19.02;;
76731;SDS011;65656;51.130;13.658;2024-03-02T15:35:05;24.58;;;19.15;;
76731;SDS011;65656;51.130;13.658;2024-03-02T15:39:08;24.23;;;20.70;;
76731;SDS011;65656;51.130;13.658;2024-03-02T15:43:09;21.48;;;19.40;;
76731;SDS011;65656;51.130;13.658;2024-03-02T15:47:11;29.40;;;26.35;;
76731;SDS011;65656;51.130;13.658;2024-03-02T15:51:13;20.02;;;17.23;;
76731;SDS011;65656;51.130;13.658;2024-03-02T15:55:16;23.20;;;20.42;;
76731;SDS011;65656;51.130;13.658;2024-03-02T15:59:17;20.50;;;18.45;;
76731;SDS011;65656;51.130;13.658;2024-03-02T16:03:19;25.20;;;20.92;;
76731;SDS011;65656;51.130;13.658;2024-03-02T16:07:20;26.27;;;20.75;;
76731;SDS011;65656;51.130;13.658;2024-03-02T16:11:23;26.05;;;23.25;;
76731;SDS011;65656;51.130;13.658;2024-03-02T16:15:25;39.38;;;35.13;;
76731;SDS011;65656;51.130;13.658;2024-03-02T16:19:27;28.42;;;19.83;;
76731;SDS011;65656;51.130;13.658;2024-03-02T16:23:33;41.17;;;34.97;;
76731;SDS011;65656;51.130;13.658;2024-03-02T16:27:36;79.10;;;69.40;;
76731;SDS011;65656;51.130;13.658;2024-03-02T16:31:38;30.25;;;25.00;;
76731;SDS011;65656;51.130;13.658;2024-03-02T16:35:40;33.42;;;29.25;;
76731;SDS011;65656;51.130;13.658;2024-03-02T16:39:42;30.50;;;24.48;;
76731;SDS011;65656;51.130;13.658;2024-03-02T16:43:45;28.08;;;20.15;;
76731;SDS011;65656;51.130;13.658;2024-03-02T16:47:46;24.85;;;20.38;;
76731;SDS011;65656;51.130;13.658;2024-03-02T16:51:48;29.20;;;22.17;;
76731;SDS011;65656;51.130;13.658;2024-03-02T16:55:50;25.02;;;19.60;;
76731;SDS011;65656;51.130;13.658;2024-03-02T16:59:52;23.98;;;18.90;;
76731;SDS011;65656;51.130;13.658;2024-03-02T17:03:54;24.73;;;20.92;;
76731;SDS011;65656;51.130;13.658;2024-03-02T17:07:56;29.45;;;21.80;;
76731;SDS011;65656;51.130;13.658;2024-03-02T17:11:57;25.50;;;18.38;;
76731;SDS011;65656;51.130;13.658;2024-03-02T17:16:00;28.10;;;24.00;;
76731;SDS011;65656;51.130;13.658;2024-03-02T17:20:02;22.83;;;19.23;;
76731;SDS011;65656;51.130;13.658;2024-03-02T17:24:05;29.88;;;22.63;;
76731;SDS011;65656;51.130;13.658;2024-03-02T17:28:20;26.42;;;23.73;;
76731;SDS011;65656;51.130;13.658;2024-03-02T17:32:24;27.27;;;22.17;;
76731;SDS011;65656;51.130;13.658;2024-03-02T17:36:27;27.38;;;22.55;;
76731;SDS011;65656;51.130;13.658;2024-03-02T17:40:31;26.42;;;21.42;;
76731;SDS011;65656;51.130;13.658;2024-03-02T17:44:32;26.08;;;22.55;;
76731;SDS011;65656;51.130;13.658;2024-03-02T17:48:37;44.13;;;40.58;;
76731;SDS011;65656;51.130;13.658;2024-03-02T17:52:39;25.77;;;20.17;;
76731;SDS011;65656;51.130;13.658;2024-03-02T17:56:41;25.17;;;22.40;;
76731;SDS011;65656;51.130;13.658;2024-03-02T18:00:43;27.58;;;21.63;;
76731;SDS011;65656;51.130;13.658;2024-03-02T18:04:46;31.33;;;22.77;;
76731;SDS011;65656;51.130;13.658;2024-03-02T18:08:48;28.80;;;20.13;;
76731;SDS011;65656;51.130;13.658;2024-03-02T18:12:50;28.25;;;22.95;;
76731;SDS011;65656;51.130;13.658;2024-03-02T18:16:52;28.13;;;25.25;;
76731;SDS011;65656;51.130;13.658;2024-03-02T18:20:56;25.27;;;22.52;;
76731;SDS011;65656;51.130;13.658;2024-03-02T18:24:57;45.45;;;41.58;;
76731;SDS011;65656;51.130;13.658;2024-03-02T18:28:59;26.83;;;21.75;;
76731;SDS011;65656;51.130;13.658;2024-03-02T18:33:03;31.75;;;23.75;;
76731;SDS011;65656;51.130;13.658;2024-03-02T18:37:06;44.97;;;41.10;;
76731;SDS011;65656;51.130;13.658;2024-03-02T18:41:08;27.88;;;23.75;;
76731;SDS011;65656;51.130;13.658;2024-03-02T18:45:11;31.65;;;25.05;;
76731;SDS011;65656;51.130;13.658;2024-03-02T18:49:13;49.05;;;45.10;;
76731;SDS011;65656;51.130;13.658;2024-03-02T18:53:16;30.20;;;24.05;;
76731;SDS011;65656;51.130;13.658;2024-03-02T18:57:18;31.25;;;27.23;;
76731;SDS011;65656;51.130;13.658;2024-03-02T19:01:21;35.08;;;26.55;;
76731;SDS011;65656;51.130;13.658;2024-03-02T19:05:23;27.55;;;23.40;;
76731;SDS011;65656;51.130;13.658;2024-03-02T19:09:27;25.67;;;21.23;;
76731;SDS011;65656;51.130;13.658;2024-03-02T19:13:30;26.77;;;23.30;;
76731;SDS011;65656;51.130;13.658;2024-03-02T19:17:32;28.85;;;23.75;;
76731;SDS011;65656;51.130;13.658;2024-03-02T19:21:34;28.33;;;21.35;;
76731;SDS011;65656;51.130;13.658;2024-03-02T19:25:37;29.98;;;24.25;;
76731;SDS011;65656;51.130;13.658;2024-03-02T19:29:39;38.70;;;34.28;;
76731;SDS011;65656;51.130;13.658;2024-03-02T19:33:41;29.35;;;25.30;;
76731;SDS011;65656;51.130;13.658;2024-03-02T19:37:43;31.88;;;24.17;;
76731;SDS011;65656;51.130;13.658;2024-03-02T19:41:47;31.20;;;24.92;;
76731;SDS011;65656;51.130;13.658;2024-03-02T19:45:49;33.33;;;24.13;;
76731;SDS011;65656;51.130;13.658;2024-03-02T19:49:51;33.67;;;28.25;;
76731;SDS011;65656;51.130;13.658;2024-03-02T19:53:53;34.65;;;25.60;;
76731;SDS011;65656;51.130;13.658;2024-03-02T19:57:56;35.67;;;29.52;;
76731;SDS011;65656;51.130;13.658;2024-03-02T20:01:58;38.78;;;33.17;;
76731;SDS011;65656;51.130;13.658;2024-03-02T20:06:00;34.78;;;30.25;;
76731;SDS011;65656;51.130;13.658;2024-03-02T20:10:04;42.65;;;33.15;;
76731;SDS011;65656;51.130;13.658;2024-03-02T20:14:08;39.63;;;35.55;;
76731;SDS011;65656;51.130;13.658;2024-03-02T20:18:11;38.75;;;32.65;;
76731;SDS011;65656;51.130;13.658;2024-03-02T20:22:13;40.00;;;32.13;;
76731;SDS011;65656;51.130;13.658;2024-03-02T20:26:16;36.25;;;27.77;;
76731;SDS011;65656;51.130;13.658;2024-03-02T20:30:24;40.25;;;30.40;;
76731;SDS011;65656;51.130;13.658;2024-03-02T20:34:26;40.25;;;30.98;;
76731;SDS011;65656;51.130;13.658;2024-03-02T20:38:29;38.30;;;29.00;;
76731;SDS011;65656;51.130;13.658;2024-03-02T20:42:31;39.25;;;34.13;;
76731;SDS011;65656;51.130;13.658;2024-03-02T20:46:36;37.47;;;31.90;;
76731;SDS011;65656;51.130;13.658;2024-03-02T20:50:38;41.88;;;35.28;;
76731;SDS011;65656;51.130;13.658;2024-03-02T20:54:41;40.45;;;31.92;;
76731;SDS011;65656;51.130;13.658;2024-03-02T20:58:43;39.72;;;34.95;;
76731;SDS011;65656;51.130;13.658;2024-03-02T21:02:46;41.63;;;31.05;;
76731;SDS011;65656;51.130;13.658;2024-03-02T21:06:49;71.03;;;64.43;;
76731;SDS011;65656;51.130;13.658;2024-03-02T21:10:51;61.22;;;55.63;;
76731;SDS011;65656;51.130;13.658;2024-03-02T21:14:53;47.05;;;36.20;;
76731;SDS011;65656;51.130;13.658;2024-03-02T21:18:57;49.28;;;42.47;;
76731;SDS011;65656;51.130;13.658;2024-03-02T21:23:01;47.53;;;41.42;;
76731;SDS011;65656;51.130;13.658;2024-03-02T21:27:03;48.03;;;40.20;;
76731;SDS011;65656;51.130;13.658;2024-03-02T21:31:06;45.35;;;38.70;;
76731;SDS011;65656;51.130;13.658;2024-03-02T21:35:09;45.20;;;33.35;;
76731;SDS011;65656;51.130;13.658;2024-03-02T21:39:12;39.40;;;31.70;;
76731;SDS011;65656;51.130;13.658;2024-03-02T21:43:14;45.45;;;39.15;;
76731;SDS011;65656;51.130;13.658;2024-03-02T21:47:16;42.92;;;32.72;;
76731;SDS011;65656;51.130;13.658;2024-03-02T21:51:19;41.50;;;34.70;;
76731;SDS011;65656;51.130;13.658;2024-03-02T21:55:21;41.47;;;32.05;;
76731;SDS011;65656;51.130;13.658;2024-03-02T21:59:23;40.70;;;36.13;;
76731;SDS011;65656;51.130;13.658;2024-03-02T22:03:26;41.10;;;31.48;;
76731;SDS011;65656;51.130;13.658;2024-03-02T22:07:29;47.00;;;39.47;;
76731;SDS011;65656;51.130;13.658;2024-03-02T22:11:32;39.65;;;29.67;;
76731;SDS011;65656;51.130;13.658;2024-03-02T22:15:34;41.72;;;33.42;;
76731;SDS011;65656;51.130;13.658;2024-03-02T22:19:36;42.95;;;31.65;;
76731;SDS011;65656;51.130;13.658;2024-03-02T22:23:40;41.53;;;30.13;;
76731;SDS011;65656;51.130;13.658;2024-03-02T22:27:42;40.85;;;34.53;;
76731;SDS011;65656;51.130;13.658;2024-03-02T22:31:45;44.95;;;32.30;;
76731;SDS011;65656;51.130;13.658;2024-03-02T22:35:47;44.40;;;35.50;;
76731;SDS011;65656;51.130;13.658;2024-03-02T22:39:52;51.17;;;37.55;;
76731;SDS011;65656;51.130;13.658;2024-03-02T22:43:54;46.30;;;36.92;;
76731;SDS011;65656;51.130;13.658;2024-03-02T22:47:56;47.55;;;39.22;;
76731;SDS011;65656;51.130;13.658;2024-03-02T22:52:00;53.88;;;35.28;;
76731;SDS011;65656;51.130;13.658;2024-03-02T22:56:04;44.83;;;36.45;;
76731;SDS011;65656;51.130;13.658;2024-03-02T23:00:07;63.70;;;57.00;;
76731;SDS011;65656;51.130;13.658;2024-03-02T23:04:09;48.47;;;37.30;;
76731;SDS011;65656;51.130;13.658;2024-03-02T23:08:11;42.97;;;32.38;;
76731;SDS011;65656;51.130;13.658;2024-03-02T23:12:15;41.53;;;32.50;;
76731;SDS011;65656;51.130;13.658;2024-03-02T23:16:17;50.65;;;45.53;;
76731;SDS011;65656;51.130;13.658;2024-03-02T23:20:19;57.40;;;51.65;;
76731;SDS011;65656;51.130;13.658;2024-03-02T23:24:22;44.10;;;36.92;;
76731;SDS011;65656;51.130;13.658;2024-03-02T23:28:25;39.17;;;29.85;;
76731;SDS011;65656;51.130;13.658;2024-03-02T23:32:27;39.72;;;31.02;;